Site contains unofficial IBTrACS data. Visit the IBTrACS Website to access archived data.

1868 NOT_NAMED (1868316S08077)


IBTrACS version v04r00. Visit IBTrACS website for data access.
Please direct all questions to the IBTrACS Q and A forum

Storm track - Intensity - Wind Radii - Intensity Data - Source Data - All data

Summary Information

Storm ID 1868316S08077
Start Nov 11 06Z
End Nov 17 06Z
ATCF IDs
Track status Best track data.

Storm track plot

Map of storm track

Intensity plots

No Intensity information for this storm


Radial wind information

No radial wind information for this storm


Position and Intensity Table

BASIN ISO_TIME_________ NATURE LAT LON
degrees north degrees east
SI 1868-11-11 06:00:00 NR -8.30 76.50
SI 09:00:00 NR -8.36 76.36
SI 12:00:00 NR -8.41 76.23
SI 15:00:00 NR -8.47 76.08
SI 18:00:00 NR -8.53 75.92
SI 21:00:00 NR -8.59 75.75
SI 1868-11-12 00:00:00 NR -8.66 75.56
SI 03:00:00 NR -8.73 75.34
SI 06:00:00 NR -8.80 75.10
SI 09:00:00 NR -8.88 74.83
SI 12:00:00 NR -8.96 74.53
SI 15:00:00 NR -9.05 74.22
SI 18:00:00 NR -9.14 73.88
SI 21:00:00 NR -9.24 73.52
SI 1868-11-13 00:00:00 NR -9.35 73.16
SI 03:00:00 NR -9.47 72.78
SI 06:00:00 NR -9.60 72.40
SI 09:00:00 NR -9.75 72.01
SI 12:00:00 NR -9.90 71.61
SI 15:00:00 NR -10.07 71.20
SI 18:00:00 NR -10.24 70.80
SI 21:00:00 NR -10.41 70.40
SI 1868-11-14 00:00:00 NR -10.58 70.01
SI 03:00:00 NR -10.74 69.64
SI 06:00:00 NR -10.90 69.30
SI 09:00:00 NR -11.04 69.00
SI 12:00:00 NR -11.17 68.72
SI 15:00:00 NR -11.29 68.46
SI 18:00:00 NR -11.41 68.22
SI 21:00:00 NR -11.53 67.98
SI 1868-11-15 00:00:00 NR -11.65 67.75
SI 03:00:00 NR -11.78 67.53
SI 06:00:00 NR -11.90 67.30
SI 09:00:00 NR -12.04 67.03
SI 12:00:00 NR -12.18 66.77
SI 15:00:00 NR -12.33 66.50
SI 18:00:00 NR -12.47 66.24
SI 21:00:00 NR -12.61 65.99
SI 1868-11-16 00:00:00 NR -12.75 65.74
SI 03:00:00 NR -12.88 65.51
SI 06:00:00 NR -13.00 65.30
SI 09:00:00 NR -13.11 65.11
SI 12:00:00 NR -13.21 64.93
SI 15:00:00 NR -13.31 64.77
SI 18:00:00 NR -13.39 64.62
SI 21:00:00 NR -13.47 64.48
SI 1868-11-17 00:00:00 NR -13.55 64.35
SI 03:00:00 NR -13.63 64.22
SI 06:00:00 NR -13.70 64.10

Source Information

Agency Information
USA
TOKYO
CMA
HKO
NEWDELHI
REUNION WMO-Best-Tracks.txt:Line=755:xxxx868111
BOM
NADI
WELLINGTON
DS824
TD9636
TD9635
NEUMANN
MLC

All available IBTrACS Data

SEASON BASIN SUBBASIN ISO_TIME_________ NATURE LAT LON WMO AGENCY DIST2LAND LANDFALL IFLAG USA SSHS REUNION LAT REUNION LON REUNION TYPE REUNION TNUM STORM SPEED STORM DIR
Year degrees north degrees east km km 1 degrees north degrees east 1 kts degrees
1869 SI MM 1868-11-11 06:00:00 NR -8.30 76.50 reunion 1654 1654 _____O________ -1 -8.30 76.50 99 9.90 3 247
1869 SI MM 09:00:00 NR -8.36 76.36 1668 1668 _____P________ -1 -8.36 76.36 99 3 247
1869 SI MM 12:00:00 NR -8.41 76.23 1675 1675 _____P________ -1 -8.41 76.23 99 3 248
1869 SI MM 15:00:00 NR -8.47 76.08 1689 1689 _____P________ -1 -8.47 76.08 99 3 249
1869 SI MM 18:00:00 NR -8.53 75.92 1695 1695 _____P________ -1 -8.53 75.92 99 4 250
1869 SI MM 21:00:00 NR -8.59 75.75 1713 1713 _____P________ -1 -8.59 75.75 99 4 251
1869 SI MM 1868-11-12 00:00:00 NR -8.66 75.56 1727 1727 _____P________ -1 -8.66 75.56 99 4 252
1869 SI MM 03:00:00 NR -8.73 75.34 1738 1738 _____P________ -1 -8.73 75.34 99 5 253
1869 SI MM 06:00:00 NR -8.80 75.10 reunion 1755 1755 _____O________ -1 -8.80 75.10 99 9.90 5 254
1869 SI MM 09:00:00 NR -8.88 74.83 1777 1777 _____P________ -1 -8.88 74.83 99 6 254
1869 SI MM 12:00:00 NR -8.96 74.53 1799 1799 _____P________ -1 -8.96 74.53 99 6 254
1869 SI MM 15:00:00 NR -9.05 74.22 1811 1811 _____P________ -1 -9.05 74.22 99 7 254
1869 SI MM 18:00:00 NR -9.14 73.88 1834 1834 _____P________ -1 -9.14 73.88 99 7 254
1869 SI MM 21:00:00 NR -9.24 73.52 1862 1862 _____P________ -1 -9.24 73.52 99 7 253
1869 SI MM 1868-11-13 00:00:00 NR -9.35 73.16 1896 1896 _____P________ -1 -9.35 73.16 99 8 253
1869 SI MM 03:00:00 NR -9.47 72.78 1925 1925 _____P________ -1 -9.47 72.78 99 8 252
1869 SI MM 06:00:00 NR -9.60 72.40 reunion 1955 1926 _____O________ -1 -9.60 72.40 99 9.90 8 250
1869 SI MM 09:00:00 NR -9.75 72.01 1926 1877 _____P________ -1 -9.75 72.01 99 8 249
1869 SI MM 12:00:00 NR -9.90 71.61 1877 1829 _____P________ -1 -9.90 71.61 99 9 248
1869 SI MM 15:00:00 NR -10.07 71.20 1829 1788 _____P________ -1 -10.07 71.20 99 9 247
1869 SI MM 18:00:00 NR -10.24 70.80 1788 1740 _____P________ -1 -10.24 70.80 99 9 247
1869 SI MM 21:00:00 NR -10.41 70.40 1740 1692 _____P________ -1 -10.41 70.40 99 8 246
1869 SI MM 1868-11-14 00:00:00 NR -10.58 70.01 1692 1660 _____P________ -1 -10.58 70.01 99 8 246
1869 SI MM 03:00:00 NR -10.74 69.64 1652 1613 _____P________ -1 -10.74 69.64 99 8 245
1869 SI MM 06:00:00 NR -10.90 69.30 reunion 1613 1581 _____O________ -1 -10.90 69.30 99 9.90 7 245
1869 SI MM 09:00:00 NR -11.04 69.00 1581 1541 _____P________ -1 -11.04 69.00 99 6 245
1869 SI MM 12:00:00 NR -11.17 68.72 1541 1517 _____P________ -1 -11.17 68.72 99 6 244
1869 SI MM 15:00:00 NR -11.29 68.46 1517 1486 _____P________ -1 -11.29 68.46 99 6 243
1869 SI MM 18:00:00 NR -11.41 68.22 1486 1462 _____P________ -1 -11.41 68.22 99 5 243
1869 SI MM 21:00:00 NR -11.53 67.98 1462 1438 _____P________ -1 -11.53 67.98 99 5 242
1869 SI MM 1868-11-15 00:00:00 NR -11.65 67.75 1431 1399 _____P________ -1 -11.65 67.75 99 5 241
1869 SI MM 03:00:00 NR -11.78 67.53 1399 1376 _____P________ -1 -11.78 67.53 99 5 241
1869 SI MM 06:00:00 NR -11.90 67.30 reunion 1376 1344 _____O________ -1 -11.90 67.30 99 9.90 6 241
1869 SI MM 09:00:00 NR -12.04 67.03 1344 1313 _____P________ -1 -12.04 67.03 99 6 241
1869 SI MM 12:00:00 NR -12.18 66.77 1313 1282 _____P________ -1 -12.18 66.77 99 6 241
1869 SI MM 15:00:00 NR -12.33 66.50 1282 1250 _____P________ -1 -12.33 66.50 99 6 241
1869 SI MM 18:00:00 NR -12.47 66.24 1243 1219 _____P________ -1 -12.47 66.24 99 6 241
1869 SI MM 21:00:00 NR -12.61 65.99 1219 1196 _____P________ -1 -12.61 65.99 99 6 240
1869 SI MM 1868-11-16 00:00:00 NR -12.75 65.74 1188 1157 _____P________ -1 -12.75 65.74 99 5 240
1869 SI MM 03:00:00 NR -12.88 65.51 1157 1134 _____P________ -1 -12.88 65.51 99 5 240
1869 SI MM 06:00:00 NR -13.00 65.30 reunion 1134 1111 _____O________ -1 -13.00 65.30 99 9.90 5 240
1869 SI MM 09:00:00 NR -13.11 65.11 1111 1088 _____P________ -1 -13.11 65.11 99 4 240
1869 SI MM 12:00:00 NR -13.21 64.93 1088 1072 _____P________ -1 -13.21 64.93 99 4 239
1869 SI MM 15:00:00 NR -13.31 64.77 1072 1049 _____P________ -1 -13.31 64.77 99 4 239
1869 SI MM 18:00:00 NR -13.39 64.62 1049 1033 _____P________ -1 -13.39 64.62 99 3 239
1869 SI MM 21:00:00 NR -13.47 64.48 1033 1026 _____P________ -1 -13.47 64.48 99 3 239
1869 SI MM 1868-11-17 00:00:00 NR -13.55 64.35 1010 1003 _____P________ -1 -13.55 64.35 99 3 239
1869 SI MM 03:00:00 NR -13.63 64.22 1003 988 _____P________ -1 -13.63 64.22 99 3 239
1869 SI MM 06:00:00 NR -13.70 64.10 reunion 988 _____O________ -1 -13.70 64.10 99 9.90 3 238